sensor_id;sensor_type;location;lat;lon;timestamp;pressure;altitude;pressure_sealevel;temperature;humidity
46876;BME280;32866;50.160;14.768;2023-01-24T00:00:31;101179.31;;;0.01;100.00
46876;BME280;32866;50.160;14.768;2023-01-24T00:02:56;101185.00;;;-0.01;100.00
46876;BME280;32866;50.160;14.768;2023-01-24T00:05:22;101181.22;;;0.01;100.00
46876;BME280;32866;50.160;14.768;2023-01-24T00:07:47;101179.91;;;0.07;100.00
46876;BME280;32866;50.160;14.768;2023-01-24T00:10:12;101163.31;;;-0.04;100.00
46876;BME280;32866;50.160;14.768;2023-01-24T00:12:38;101179.06;;;0.24;100.00
46876;BME280;32866;50.160;14.768;2023-01-24T00:15:04;101185.38;;;0.28;100.00
46876;BME280;32866;50.160;14.768;2023-01-24T00:17:30;101180.59;;;-0.05;100.00
46876;BME280;32866;50.160;14.768;2023-01-24T00:19:55;101182.94;;;0.05;100.00
46876;BME280;32866;50.160;14.768;2023-01-24T00:22:21;101180.94;;;-0.07;100.00
46876;BME280;32866;50.160;14.768;2023-01-24T00:24:47;101163.16;;;-0.08;100.00
46876;BME280;32866;50.160;14.768;2023-01-24T00:27:14;101180.25;;;-0.04;100.00
46876;BME280;32866;50.160;14.768;2023-01-24T00:29:39;101192.47;;;0.03;100.00
46876;BME280;32866;50.160;14.768;2023-01-24T00:32:04;101173.06;;;0.18;100.00
46876;BME280;32866;50.160;14.768;2023-01-24T00:34:30;101167.56;;;0.06;100.00
46876;BME280;32866;50.160;14.768;2023-01-24T00:36:55;101188.03;;;0.36;100.00
46876;BME280;32866;50.160;14.768;2023-01-24T00:39:21;101194.94;;;0.16;100.00
46876;BME280;32866;50.160;14.768;2023-01-24T00:41:46;101189.91;;;0.06;100.00
46876;BME280;32866;50.160;14.768;2023-01-24T00:44:11;101186.75;;;0.04;100.00
46876;BME280;32866;50.160;14.768;2023-01-24T00:46:37;101161.31;;;-0.25;100.00
46876;BME280;32866;50.160;14.768;2023-01-24T00:49:02;101186.31;;;-0.07;100.00
46876;BME280;32866;50.160;14.768;2023-01-24T00:51:28;101175.81;;;0.01;100.00
46876;BME280;32866;50.160;14.768;2023-01-24T00:53:53;101179.97;;;-0.11;100.00
46876;BME280;32866;50.160;14.768;2023-01-24T00:56:18;101194.41;;;-0.15;100.00
46876;BME280;32866;50.160;14.768;2023-01-24T00:58:44;101215.44;;;0.09;100.00
46876;BME280;32866;50.160;14.768;2023-01-24T01:01:09;101212.94;;;0.04;100.00
46876;BME280;32866;50.160;14.768;2023-01-24T01:03:34;101200.59;;;-0.15;100.00
46876;BME280;32866;50.160;14.768;2023-01-24T01:06:02;101213.84;;;0.08;100.00
46876;BME280;32866;50.160;14.768;2023-01-24T01:08:29;101226.22;;;0.09;100.00
46876;BME280;32866;50.160;14.768;2023-01-24T01:10:54;101215.00;;;-0.11;100.00
46876;BME280;32866;50.160;14.768;2023-01-24T01:13:20;101223.72;;;0.04;100.00
46876;BME280;32866;50.160;14.768;2023-01-24T01:15:45;101225.75;;;-0.02;100.00
46876;BME280;32866;50.160;14.768;2023-01-24T01:18:10;101190.31;;;-0.30;100.00
46876;BME280;32866;50.160;14.768;2023-01-24T01:20:36;101235.72;;;0.15;100.00
46876;BME280;32866;50.160;14.768;2023-01-24T01:23:01;101198.94;;;0.02;100.00
46876;BME280;32866;50.160;14.768;2023-01-24T01:25:27;101228.72;;;0.23;100.00
46876;BME280;32866;50.160;14.768;2023-01-24T01:27:52;101233.00;;;0.24;100.00
46876;BME280;32866;50.160;14.768;2023-01-24T01:30:18;101229.63;;;0.35;100.00
46876;BME280;32866;50.160;14.768;2023-01-24T01:32:43;101210.38;;;0.07;100.00
46876;BME280;32866;50.160;14.768;2023-01-24T01:35:09;101230.38;;;-0.03;100.00
46876;BME280;32866;50.160;14.768;2023-01-24T01:37:35;101235.41;;;0.08;100.00
46876;BME280;32866;50.160;14.768;2023-01-24T01:40:00;101216.91;;;-0.03;100.00
46876;BME280;32866;50.160;14.768;2023-01-24T01:42:41;101215.66;;;-0.23;100.00
46876;BME280;32866;50.160;14.768;2023-01-24T01:47:56;101234.84;;;-0.07;100.00
46876;BME280;32866;50.160;14.768;2023-01-24T01:50:40;101237.84;;;-0.17;100.00
46876;BME280;32866;50.160;14.768;2023-01-24T01:53:09;101233.25;;;-0.25;100.00
46876;BME280;32866;50.160;14.768;2023-01-24T01:55:38;101233.75;;;-0.23;100.00
46876;BME280;32866;50.160;14.768;2023-01-24T01:58:07;101207.28;;;-0.30;100.00
46876;BME280;32866;50.160;14.768;2023-01-24T02:00:33;101234.97;;;-0.03;100.00
46876;BME280;32866;50.160;14.768;2023-01-24T02:03:05;101239.22;;;0.07;100.00
46876;BME280;32866;50.160;14.768;2023-01-24T02:05:52;101234.84;;;-0.24;100.00
46876;BME280;32866;50.160;14.768;2023-01-24T02:08:20;101241.16;;;-0.03;100.00
46876;BME280;32866;50.160;14.768;2023-01-24T02:10:45;101242.09;;;-0.07;100.00
46876;BME280;32866;50.160;14.768;2023-01-24T02:13:29;101236.44;;;-0.23;100.00
46876;BME280;32866;50.160;14.768;2023-01-24T02:15:55;101213.00;;;-0.31;100.00
46876;BME280;32866;50.160;14.768;2023-01-24T02:18:34;101229.44;;;-0.07;100.00
46876;BME280;32866;50.160;14.768;2023-01-24T02:21:03;101225.31;;;-0.13;100.00
46876;BME280;32866;50.160;14.768;2023-01-24T02:26:21;101231.06;;;-0.23;100.00
46876;BME280;32866;50.160;14.768;2023-01-24T02:28:56;101225.63;;;-0.06;100.00
46876;BME280;32866;50.160;14.768;2023-01-24T02:31:22;101229.63;;;-0.29;100.00
46876;BME280;32866;50.160;14.768;2023-01-24T02:33:48;101213.31;;;-0.50;100.00
46876;BME280;32866;50.160;14.768;2023-01-24T02:36:19;101224.25;;;-0.29;100.00
46876;BME280;32866;50.160;14.768;2023-01-24T02:38:50;101191.94;;;-0.47;100.00
46876;BME280;32866;50.160;14.768;2023-01-24T02:41:19;101228.84;;;-0.21;100.00
46876;BME280;32866;50.160;14.768;2023-01-24T02:43:49;101216.78;;;-0.15;100.00
46876;BME280;32866;50.160;14.768;2023-01-24T02:46:17;101213.94;;;-0.27;100.00
46876;BME280;32866;50.160;14.768;2023-01-24T02:48:43;101206.78;;;-0.32;100.00
46876;BME280;32866;50.160;14.768;2023-01-24T02:51:08;101210.78;;;-0.29;100.00
46876;BME280;32866;50.160;14.768;2023-01-24T02:53:52;101217.44;;;-0.35;100.00
46876;BME280;32866;50.160;14.768;2023-01-24T02:56:18;101225.97;;;-0.16;100.00
46876;BME280;32866;50.160;14.768;2023-01-24T02:59:02;101190.19;;;-0.43;100.00
46876;BME280;32866;50.160;14.768;2023-01-24T03:01:27;101217.09;;;-0.25;100.00
46876;BME280;32866;50.160;14.768;2023-01-24T03:03:54;101214.56;;;-0.30;100.00
46876;BME280;32866;50.160;14.768;2023-01-24T03:06:20;101193.03;;;-0.48;100.00
46876;BME280;32866;50.160;14.768;2023-01-24T03:08:45;101217.59;;;-0.23;100.00
46876;BME280;32866;50.160;14.768;2023-01-24T03:11:12;101216.31;;;-0.34;100.00
46876;BME280;32866;50.160;14.768;2023-01-24T03:13:37;101184.00;;;-0.43;100.00
46876;BME280;32866;50.160;14.768;2023-01-24T03:16:22;101166.28;;;-0.53;100.00
46876;BME280;32866;50.160;14.768;2023-01-24T03:19:06;101214.25;;;-0.29;100.00
46876;BME280;32866;50.160;14.768;2023-01-24T03:21:50;101209.78;;;-0.16;100.00
46876;BME280;32866;50.160;14.768;2023-01-24T03:24:34;101174.16;;;-0.39;100.00
46876;BME280;32866;50.160;14.768;2023-01-24T03:27:18;101214.41;;;-0.25;100.00
46876;BME280;32866;50.160;14.768;2023-01-24T03:30:03;101220.56;;;-0.16;100.00
46876;BME280;32866;50.160;14.768;2023-01-24T03:32:48;101198.22;;;-0.25;100.00
46876;BME280;32866;50.160;14.768;2023-01-24T03:35:32;101223.63;;;-0.35;100.00
46876;BME280;32866;50.160;14.768;2023-01-24T03:37:58;101226.00;;;-0.33;100.00
46876;BME280;32866;50.160;14.768;2023-01-24T03:40:42;101220.78;;;-0.39;100.00
46876;BME280;32866;50.160;14.768;2023-01-24T03:43:07;101212.38;;;-0.46;100.00
46876;BME280;32866;50.160;14.768;2023-01-24T03:45:35;101223.78;;;-0.31;100.00
46876;BME280;32866;50.160;14.768;2023-01-24T03:48:02;101221.09;;;-0.40;100.00
46876;BME280;32866;50.160;14.768;2023-01-24T03:50:31;101224.41;;;-0.34;100.00
46876;BME280;32866;50.160;14.768;2023-01-24T03:53:17;101223.94;;;-0.54;100.00
46876;BME280;32866;50.160;14.768;2023-01-24T03:55:43;101216.50;;;-0.40;100.00
46876;BME280;32866;50.160;14.768;2023-01-24T03:58:09;101220.28;;;-0.23;100.00
46876;BME280;32866;50.160;14.768;2023-01-24T04:00:35;101224.38;;;-0.17;100.00
46876;BME280;32866;50.160;14.768;2023-01-24T04:03:01;101219.78;;;-0.25;100.00
46876;BME280;32866;50.160;14.768;2023-01-24T04:05:27;101213.78;;;-0.57;100.00
46876;BME280;32866;50.160;14.768;2023-01-24T04:07:56;101221.41;;;-0.50;100.00
46876;BME280;32866;50.160;14.768;2023-01-24T04:10:21;101217.75;;;-0.46;100.00
46876;BME280;32866;50.160;14.768;2023-01-24T04:12:47;101209.69;;;-0.46;100.00
46876;BME280;32866;50.160;14.768;2023-01-24T04:15:19;101217.78;;;-0.54;100.00
46876;BME280;32866;50.160;14.768;2023-01-24T04:17:44;101220.63;;;-0.51;100.00
46876;BME280;32866;50.160;14.768;2023-01-24T04:20:10;101198.91;;;-0.54;100.00
46876;BME280;32866;50.160;14.768;2023-01-24T04:22:36;101217.28;;;-0.39;100.00
46876;BME280;32866;50.160;14.768;2023-01-24T04:25:01;101172.75;;;-0.54;100.00
46876;BME280;32866;50.160;14.768;2023-01-24T04:27:26;101219.16;;;-0.22;100.00
46876;BME280;32866;50.160;14.768;2023-01-24T04:29:52;101196.38;;;-0.51;100.00
46876;BME280;32866;50.160;14.768;2023-01-24T04:32:17;101215.22;;;-0.33;100.00
46876;BME280;32866;50.160;14.768;2023-01-24T04:34:43;101206.53;;;-0.57;100.00
46876;BME280;32866;50.160;14.768;2023-01-24T04:37:08;101215.88;;;-0.36;100.00
46876;BME280;32866;50.160;14.768;2023-01-24T04:39:34;101200.66;;;-0.41;100.00
46876;BME280;32866;50.160;14.768;2023-01-24T04:41:59;101217.41;;;-0.18;100.00
46876;BME280;32866;50.160;14.768;2023-01-24T04:44:24;101209.84;;;-0.51;100.00
46876;BME280;32866;50.160;14.768;2023-01-24T04:46:50;101219.31;;;-0.27;100.00
46876;BME280;32866;50.160;14.768;2023-01-24T04:49:15;101215.03;;;-0.37;100.00
46876;BME280;32866;50.160;14.768;2023-01-24T04:51:41;101222.00;;;-0.27;100.00
46876;BME280;32866;50.160;14.768;2023-01-24T04:54:10;101219.03;;;-0.34;100.00
46876;BME280;32866;50.160;14.768;2023-01-24T04:56:35;101220.13;;;-0.44;100.00
46876;BME280;32866;50.160;14.768;2023-01-24T04:59:01;101213.47;;;-0.56;100.00
46876;BME280;32866;50.160;14.768;2023-01-24T05:01:26;101202.41;;;-0.45;100.00
46876;BME280;32866;50.160;14.768;2023-01-24T05:03:52;101197.50;;;-0.69;100.00
46876;BME280;32866;50.160;14.768;2023-01-24T05:06:26;101207.94;;;-0.42;100.00
46876;BME280;32866;50.160;14.768;2023-01-24T05:08:53;101212.06;;;-0.53;100.00
46876;BME280;32866;50.160;14.768;2023-01-24T05:11:18;101232.50;;;-0.34;100.00
46876;BME280;32866;50.160;14.768;2023-01-24T05:13:43;101214.28;;;-0.55;100.00
46876;BME280;32866;50.160;14.768;2023-01-24T05:16:09;101215.56;;;-0.61;100.00
46876;BME280;32866;50.160;14.768;2023-01-24T05:18:34;101229.16;;;-0.31;100.00
46876;BME280;32866;50.160;14.768;2023-01-24T05:23:35;101208.25;;;-0.34;100.00
46876;BME280;32866;50.160;14.768;2023-01-24T05:26:01;101236.91;;;-0.21;100.00
46876;BME280;32866;50.160;14.768;2023-01-24T05:28:27;101234.84;;;-0.24;100.00
46876;BME280;32866;50.160;14.768;2023-01-24T05:30:53;101235.31;;;-0.22;100.00
46876;BME280;32866;50.160;14.768;2023-01-24T05:33:22;101240.06;;;-0.10;100.00
46876;BME280;32866;50.160;14.768;2023-01-24T05:35:47;101223.13;;;-0.37;100.00
46876;BME280;32866;50.160;14.768;2023-01-24T05:38:13;101229.00;;;-0.26;100.00
46876;BME280;32866;50.160;14.768;2023-01-24T05:40:38;101218.22;;;-0.26;100.00
46876;BME280;32866;50.160;14.768;2023-01-24T05:43:05;101242.44;;;-0.09;100.00
46876;BME280;32866;50.160;14.768;2023-01-24T05:45:30;101251.31;;;0.01;100.00
46876;BME280;32866;50.160;14.768;2023-01-24T05:47:56;101232.19;;;-0.33;100.00
46876;BME280;32866;50.160;14.768;2023-01-24T05:50:21;101251.16;;;-0.12;100.00
46876;BME280;32866;50.160;14.768;2023-01-24T05:52:46;101245.81;;;-0.29;100.00
46876;BME280;32866;50.160;14.768;2023-01-24T05:55:12;101236.78;;;-0.33;100.00
46876;BME280;32866;50.160;14.768;2023-01-24T05:57:37;101259.91;;;-0.32;100.00
46876;BME280;32866;50.160;14.768;2023-01-24T06:00:03;101241.66;;;-0.18;100.00
46876;BME280;32866;50.160;14.768;2023-01-24T06:02:29;101247.84;;;-0.26;100.00
46876;BME280;32866;50.160;14.768;2023-01-24T06:04:54;101238.19;;;-0.27;100.00
46876;BME280;32866;50.160;14.768;2023-01-24T06:07:20;101239.47;;;-0.42;100.00
46876;BME280;32866;50.160;14.768;2023-01-24T06:09:45;101261.97;;;-0.29;100.00
46876;BME280;32866;50.160;14.768;2023-01-24T06:12:11;101266.53;;;-0.04;100.00
46876;BME280;32866;50.160;14.768;2023-01-24T06:14:36;101270.00;;;0.06;100.00
46876;BME280;32866;50.160;14.768;2023-01-24T06:17:01;101264.63;;;-0.12;100.00
46876;BME280;32866;50.160;14.768;2023-01-24T06:19:27;101229.63;;;-0.29;100.00
46876;BME280;32866;50.160;14.768;2023-01-24T06:22:13;101273.06;;;-0.13;100.00
46876;BME280;32866;50.160;14.768;2023-01-24T06:24:42;101269.22;;;-0.12;100.00
46876;BME280;32866;50.160;14.768;2023-01-24T06:27:08;101282.72;;;-0.21;100.00
46876;BME280;32866;50.160;14.768;2023-01-24T06:29:34;101269.41;;;-0.26;100.00
46876;BME280;32866;50.160;14.768;2023-01-24T06:32:38;101281.75;;;-0.08;100.00
46876;BME280;32866;50.160;14.768;2023-01-24T06:37:46;101290.34;;;-0.14;100.00
46876;BME280;32866;50.160;14.768;2023-01-24T06:40:14;101287.50;;;-0.27;100.00
46876;BME280;32866;50.160;14.768;2023-01-24T06:42:40;101292.22;;;-0.24;100.00
46876;BME280;32866;50.160;14.768;2023-01-24T06:45:07;101301.09;;;-0.06;100.00
46876;BME280;32866;50.160;14.768;2023-01-24T06:47:32;101295.72;;;-0.23;100.00
46876;BME280;32866;50.160;14.768;2023-01-24T06:49:58;101299.53;;;-0.24;100.00
46876;BME280;32866;50.160;14.768;2023-01-24T06:52:23;101303.94;;;-0.02;100.00
46876;BME280;32866;50.160;14.768;2023-01-24T06:54:49;101310.28;;;0.11;100.00
46876;BME280;32866;50.160;14.768;2023-01-24T06:57:14;101319.16;;;0.03;100.00
46876;BME280;32866;50.160;14.768;2023-01-24T06:59:39;101307.13;;;-0.17;100.00
46876;BME280;32866;50.160;14.768;2023-01-24T07:02:05;101311.28;;;-0.20;100.00
46876;BME280;32866;50.160;14.768;2023-01-24T07:04:30;101324.88;;;-0.25;100.00
46876;BME280;32866;50.160;14.768;2023-01-24T07:06:56;101313.81;;;-0.15;100.00
46876;BME280;32866;50.160;14.768;2023-01-24T07:09:22;101317.59;;;-0.07;100.00
46876;BME280;32866;50.160;14.768;2023-01-24T07:11:47;101269.59;;;-0.31;100.00
46876;BME280;32866;50.160;14.768;2023-01-24T07:14:17;101317.09;;;-0.01;100.00
46876;BME280;32866;50.160;14.768;2023-01-24T07:16:42;101292.06;;;-0.10;100.00
46876;BME280;32866;50.160;14.768;2023-01-24T07:19:13;101313.91;;;0.24;100.00
46876;BME280;32866;50.160;14.768;2023-01-24T07:21:39;101314.56;;;0.12;100.00
46876;BME280;32866;50.160;14.768;2023-01-24T07:24:12;101319.16;;;0.03;100.00
46876;BME280;32866;50.160;14.768;2023-01-24T07:26:38;101293.78;;;-0.05;100.00
46876;BME280;32866;50.160;14.768;2023-01-24T07:29:04;101309.34;;;-0.11;100.00
46876;BME280;32866;50.160;14.768;2023-01-24T07:31:29;101310.28;;;0.11;100.00
46876;BME280;32866;50.160;14.768;2023-01-24T07:33:54;101326.13;;;0.12;100.00
46876;BME280;32866;50.160;14.768;2023-01-24T07:36:20;101309.31;;;0.07;100.00
46876;BME280;32866;50.160;14.768;2023-01-24T07:38:45;101334.19;;;0.30;100.00
46876;BME280;32866;50.160;14.768;2023-01-24T07:41:11;101318.69;;;0.09;100.00
46876;BME280;32866;50.160;14.768;2023-01-24T07:43:36;101330.06;;;0.32;100.00
46876;BME280;32866;50.160;14.768;2023-01-24T07:46:02;101320.03;;;0.42;100.00
46876;BME280;32866;50.160;14.768;2023-01-24T07:48:28;101340.94;;;0.53;100.00
46876;BME280;32866;50.160;14.768;2023-01-24T07:50:53;101307.25;;;0.21;100.00
46876;BME280;32866;50.160;14.768;2023-01-24T07:53:18;101334.75;;;0.53;100.00
46876;BME280;32866;50.160;14.768;2023-01-24T07:55:44;101331.56;;;0.60;100.00
46876;BME280;32866;50.160;14.768;2023-01-24T07:58:09;101337.75;;;0.60;100.00
46876;BME280;32866;50.160;14.768;2023-01-24T08:00:35;101299.41;;;0.46;100.00
46876;BME280;32866;50.160;14.768;2023-01-24T08:03:00;101340.34;;;0.48;100.00
46876;BME280;32866;50.160;14.768;2023-01-24T08:05:25;101339.13;;;0.75;100.00
46876;BME280;32866;50.160;14.768;2023-01-24T08:07:53;101340.00;;;0.58;100.00
46876;BME280;32866;50.160;14.768;2023-01-24T08:10:18;101332.59;;;0.38;100.00
46876;BME280;32866;50.160;14.768;2023-01-24T08:12:46;101334.16;;;0.39;100.00
46876;BME280;32866;50.160;14.768;2023-01-24T08:15:11;101346.19;;;0.50;100.00
46876;BME280;32866;50.160;14.768;2023-01-24T08:17:37;101341.75;;;0.54;100.00
46876;BME280;32866;50.160;14.768;2023-01-24T08:20:04;101353.31;;;0.63;100.00
46876;BME280;32866;50.160;14.768;2023-01-24T08:22:30;101350.91;;;0.70;100.00
46876;BME280;32866;50.160;14.768;2023-01-24T08:24:55;101327.44;;;0.53;100.00
46876;BME280;32866;50.160;14.768;2023-01-24T08:27:21;101346.63;;;0.69;100.00
46876;BME280;32866;50.160;14.768;2023-01-24T08:29:46;101348.97;;;0.80;100.00
46876;BME280;32866;50.160;14.768;2023-01-24T08:32:11;101350.56;;;1.10;100.00
46876;BME280;32866;50.160;14.768;2023-01-24T08:34:37;101361.47;;;0.93;100.00
46876;BME280;32866;50.160;14.768;2023-01-24T08:37:02;101343.94;;;0.69;100.00
46876;BME280;32866;50.160;14.768;2023-01-24T08:39:27;101330.72;;;0.77;100.00
46876;BME280;32866;50.160;14.768;2023-01-24T08:41:53;101338.44;;;0.87;100.00
46876;BME280;32866;50.160;14.768;2023-01-24T08:44:18;101345.47;;;0.79;100.00
46876;BME280;32866;50.160;14.768;2023-01-24T08:46:44;101314.78;;;0.84;100.00
46876;BME280;32866;50.160;14.768;2023-01-24T08:49:10;101318.63;;;0.83;100.00
46876;BME280;32866;50.160;14.768;2023-01-24T08:51:35;101351.50;;;1.15;100.00
46876;BME280;32866;50.160;14.768;2023-01-24T08:54:01;101343.97;;;0.99;100.00
46876;BME280;32866;50.160;14.768;2023-01-24T08:56:26;101368.09;;;1.34;100.00
46876;BME280;32866;50.160;14.768;2023-01-24T08:58:52;101363.72;;;1.21;100.00
46876;BME280;32866;50.160;14.768;2023-01-24T09:01:17;101344.88;;;1.03;100.00
46876;BME280;32866;50.160;14.768;2023-01-24T09:03:42;101367.63;;;1.32;100.00
46876;BME280;32866;50.160;14.768;2023-01-24T09:06:08;101360.78;;;1.35;100.00
46876;BME280;32866;50.160;14.768;2023-01-24T09:08:33;101367.72;;;1.44;100.00
46876;BME280;32866;50.160;14.768;2023-01-24T09:11:02;101377.69;;;1.53;100.00
46876;BME280;32866;50.160;14.768;2023-01-24T09:13:27;101377.88;;;1.47;100.00
46876;BME280;32866;50.160;14.768;2023-01-24T09:15:53;101377.78;;;1.35;100.00
46876;BME280;32866;50.160;14.768;2023-01-24T09:18:18;101380.75;;;1.42;100.00
46876;BME280;32866;50.160;14.768;2023-01-24T09:20:44;101355.97;;;1.40;100.00
46876;BME280;32866;50.160;14.768;2023-01-24T09:23:13;101373.06;;;1.74;100.00
46876;BME280;32866;50.160;14.768;2023-01-24T09:25:41;101376.69;;;1.78;100.00
46876;BME280;32866;50.160;14.768;2023-01-24T09:28:07;101381.53;;;1.73;100.00
46876;BME280;32866;50.160;14.768;2023-01-24T09:30:34;101380.06;;;1.75;100.00
46876;BME280;32866;50.160;14.768;2023-01-24T09:33:05;101380.84;;;1.55;100.00
46876;BME280;32866;50.160;14.768;2023-01-24T09:35:31;101382.78;;;1.45;100.00
46876;BME280;32866;50.160;14.768;2023-01-24T09:37:56;101403.09;;;1.22;100.00
46876;BME280;32866;50.160;14.768;2023-01-24T09:40:42;101393.94;;;1.44;100.00
46876;BME280;32866;50.160;14.768;2023-01-24T09:46:02;101361.84;;;1.63;100.00
46876;BME280;32866;50.160;14.768;2023-01-24T09:48:32;101387.53;;;1.48;100.00
46876;BME280;32866;50.160;14.768;2023-01-24T09:51:03;101390.50;;;1.56;100.00
46876;BME280;32866;50.160;14.768;2023-01-24T09:53:40;101367.91;;;1.60;100.00
46876;BME280;32866;50.160;14.768;2023-01-24T09:56:06;101391.00;;;1.58;100.00
46876;BME280;32866;50.160;14.768;2023-01-24T09:58:39;101365.22;;;1.30;100.00
46876;BME280;32866;50.160;14.768;2023-01-24T10:01:11;101383.75;;;1.50;100.00
46876;BME280;32866;50.160;14.768;2023-01-24T10:03:37;101387.81;;;1.56;100.00
46876;BME280;32866;50.160;14.768;2023-01-24T10:06:29;101388.31;;;1.49;100.00
46876;BME280;32866;50.160;14.768;2023-01-24T10:09:14;101387.34;;;1.54;100.00
46876;BME280;32866;50.160;14.768;2023-01-24T10:12:02;101390.41;;;1.73;100.00
46876;BME280;32866;50.160;14.768;2023-01-24T10:20:31;101379.03;;;1.38;100.00
46876;BME280;32866;50.160;14.768;2023-01-24T10:23:16;101363.34;;;1.31;100.00
46876;BME280;32866;50.160;14.768;2023-01-24T10:26:05;101387.88;;;1.47;100.00
46876;BME280;32866;50.160;14.768;2023-01-24T10:28:40;101358.47;;;1.16;100.00
46876;BME280;32866;50.160;14.768;2023-01-24T10:31:16;101374.41;;;1.38;100.00
46876;BME280;32866;50.160;14.768;2023-01-24T10:33:49;101382.97;;;1.40;100.00
46876;BME280;32866;50.160;14.768;2023-01-24T10:39:26;101374.06;;;1.70;100.00
46876;BME280;32866;50.160;14.768;2023-01-24T10:41:52;101371.13;;;1.54;100.00
46876;BME280;32866;50.160;14.768;2023-01-24T10:44:24;101362.84;;;1.59;100.00
46876;BME280;32866;50.160;14.768;2023-01-24T10:49:38;101365.66;;;1.62;100.00
46876;BME280;32866;50.160;14.768;2023-01-24T10:54:42;101363.03;;;1.96;100.00
46876;BME280;32866;50.160;14.768;2023-01-24T10:57:23;101364.28;;;1.77;100.00
46876;BME280;32866;50.160;14.768;2023-01-24T10:59:51;101357.88;;;1.61;100.00
46876;BME280;32866;50.160;14.768;2023-01-24T11:02:22;101352.13;;;1.71;100.00
46876;BME280;32866;50.160;14.768;2023-01-24T11:04:52;101364.81;;;1.71;100.00
46876;BME280;32866;50.160;14.768;2023-01-24T11:07:28;101368.47;;;1.75;100.00
46876;BME280;32866;50.160;14.768;2023-01-24T11:09:53;101342.38;;;1.49;100.00
46876;BME280;32866;50.160;14.768;2023-01-24T11:12:19;101358.09;;;1.56;100.00
46876;BME280;32866;50.160;14.768;2023-01-24T11:14:47;101352.91;;;1.72;100.00
46876;BME280;32866;50.160;14.768;2023-01-24T11:17:32;101354.66;;;1.67;100.00
46876;BME280;32866;50.160;14.768;2023-01-24T11:20:17;101330.34;;;1.46;100.00
46876;BME280;32866;50.160;14.768;2023-01-24T11:22:49;101344.03;;;1.62;100.00
46876;BME280;32866;50.160;14.768;2023-01-24T11:25:15;101352.47;;;1.61;100.00
46876;BME280;32866;50.160;14.768;2023-01-24T11:27:48;101355.38;;;1.56;100.00
46876;BME280;32866;50.160;14.768;2023-01-24T11:30:17;101357.44;;;1.59;100.00
46876;BME280;32866;50.160;14.768;2023-01-24T11:33:13;101355.06;;;1.57;100.00
46876;BME280;32866;50.160;14.768;2023-01-24T11:35:45;101353.63;;;1.60;100.00
46876;BME280;32866;50.160;14.768;2023-01-24T11:38:33;101353.44;;;1.65;100.00
46876;BME280;32866;50.160;14.768;2023-01-24T11:41:13;101305.28;;;1.37;100.00
46876;BME280;32866;50.160;14.768;2023-01-24T11:52:20;101334.44;;;1.74;100.00
46876;BME280;32866;50.160;14.768;2023-01-24T11:55:54;101337.00;;;1.70;100.00
46876;BME280;32866;50.160;14.768;2023-01-24T11:58:13;101337.47;;;1.72;100.00
46876;BME280;32866;50.160;14.768;2023-01-24T12:01:02;101333.13;;;1.80;100.00
46876;BME280;32866;50.160;14.768;2023-01-24T12:06:36;101328.94;;;1.82;100.00
46876;BME280;32866;50.160;14.768;2023-01-24T12:09:13;101326.94;;;1.79;100.00
46876;BME280;32866;50.160;14.768;2023-01-24T12:11:44;101320.34;;;1.68;100.00
46876;BME280;32866;50.160;14.768;2023-01-24T12:14:27;101337.22;;;1.86;100.00
46876;BME280;32866;50.160;14.768;2023-01-24T12:22:11;101325.34;;;1.78;100.00
46876;BME280;32866;50.160;14.768;2023-01-24T12:24:41;101300.06;;;1.32;100.00
46876;BME280;32866;50.160;14.768;2023-01-24T12:27:16;101283.22;;;1.35;100.00
46876;BME280;32866;50.160;14.768;2023-01-24T12:29:50;101320.78;;;1.70;100.00
46876;BME280;32866;50.160;14.768;2023-01-24T12:32:49;101319.94;;;1.78;100.00
46876;BME280;32866;50.160;14.768;2023-01-24T12:35:48;101324.06;;;1.76;100.00
46876;BME280;32866;50.160;14.768;2023-01-24T12:41:27;101325.19;;;1.54;100.00
46876;BME280;32866;50.160;14.768;2023-01-24T12:44:00;101316.91;;;1.80;100.00
46876;BME280;32866;50.160;14.768;2023-01-24T12:47:04;101299.13;;;1.58;100.00
46876;BME280;32866;50.160;14.768;2023-01-24T12:49:38;101296.63;;;1.53;100.00
46876;BME280;32866;50.160;14.768;2023-01-24T12:52:23;101313.66;;;1.87;100.00
46876;BME280;32866;50.160;14.768;2023-01-24T12:54:57;101278.66;;;1.69;100.00
46876;BME280;32866;50.160;14.768;2023-01-24T12:57:30;101303.72;;;1.57;100.00
46876;BME280;32866;50.160;14.768;2023-01-24T12:59:57;101287.09;;;1.46;100.00
46876;BME280;32866;50.160;14.768;2023-01-24T13:02:42;101316.28;;;1.74;100.00
46876;BME280;32866;50.160;14.768;2023-01-24T13:05:31;101305.31;;;1.79;100.00
46876;BME280;32866;50.160;14.768;2023-01-24T13:11:00;101299.69;;;1.84;100.00
46876;BME280;32866;50.160;14.768;2023-01-24T13:13:39;101297.38;;;1.74;100.00
46876;BME280;32866;50.160;14.768;2023-01-24T13:19:06;101304.34;;;1.96;100.00
46876;BME280;32866;50.160;14.768;2023-01-24T13:22:02;101293.22;;;1.98;100.00
46876;BME280;32866;50.160;14.768;2023-01-24T13:24:49;101295.50;;;2.08;100.00
46876;BME280;32866;50.160;14.768;2023-01-24T13:32:36;101304.19;;;1.93;100.00
46876;BME280;32866;50.160;14.768;2023-01-24T13:35:14;101289.53;;;1.81;100.00
46876;BME280;32866;50.160;14.768;2023-01-24T13:37:40;101295.91;;;1.98;100.00
46876;BME280;32866;50.160;14.768;2023-01-24T13:42:38;101301.91;;;1.82;100.00
46876;BME280;32866;50.160;14.768;2023-01-24T13:47:48;101299.41;;;1.77;100.00
46876;BME280;32866;50.160;14.768;2023-01-24T13:50:16;101282.03;;;1.66;100.00
46876;BME280;32866;50.160;14.768;2023-01-24T13:52:47;101301.00;;;1.78;100.00